< Typhoon 199110 1991 Season Typhoon 199112 >
Typhoon 199111 (FRED)
General InformationTrack Information on Google MapsDetailed Wind InformationList of All Images || Disaster Info.ResourceGoogle EarthGE AnimationAtom FeedGeoJSON
Detalied Best Track (Time Zone = UTC)
Year Month Day Hour Lat. Long. Pressure (hPa) Wind (kt) Class Image Chart
1991 8 11 06 16.0 124.0 1002 0 2 Image Chart
1991 8 11 12 16.5 123.6 1002 0 2 Image Chart
1991 8 11 18 17.0 123.0 1002 0 2 Image Chart
1991 8 12 00 17.8 122.8 1002 0 2 Image Chart
1991 8 12 06 18.3 122.4 1002 0 2 Image Chart
1991 8 12 12 18.6 121.5 1002 0 2 Image Chart
1991 8 12 18 18.8 120.8 1002 0 2 Image Chart
1991 8 13 00 19.0 120.2 1000 0 2 Image Chart
1991 8 13 06 19.0 119.7 998 35 3 Image Chart
1991 8 13 12 18.9 119.2 994 40 3 Image Chart
1991 8 13 18 18.9 118.6 990 45 3 Image Chart
1991 8 14 00 19.2 118.0 985 50 4 Image Chart
1991 8 14 06 19.5 117.4 980 55 4 Image Chart
1991 8 14 12 19.9 116.6 975 60 4 Image Chart
1991 8 14 18 19.9 115.5 970 65 5 Image Chart
1991 8 15 00 20.2 114.5 970 65 5 Image Chart
1991 8 15 06 20.4 113.9 965 70 5 Image Chart
1991 8 15 12 20.5 112.8 960 75 5 Image Chart
1991 8 15 18 20.4 111.5 960 75 5 Image Chart
1991 8 16 00 20.4 110.5 960 75 5 Image Chart
1991 8 16 06 20.2 109.5 965 70 5 Image Chart
1991 8 16 12 19.7 108.5 970 65 5 Image Chart
1991 8 16 18 19.2 107.9 975 65 5 Image Chart
1991 8 17 00 18.7 107.6 980 60 4 Image Chart
1991 8 17 06 18.2 106.8 980 60 4 Image Chart
1991 8 17 12 17.8 105.8 980 55 4 Image Chart
1991 8 17 18 17.3 104.0 990 45 3 Image Chart
1991 8 18 00 17.0 102.8 994 35 3 Image Chart
1991 8 18 06 17.0 102.0 998 0 2 Image Chart
1991 8 18 12 17.0 101.5 998 0 2 Image Chart
Japan Meteorological Agency Best Track Data | Correction Date : 1992-01-04
< Typhoon 199110 1991 Season Typhoon 199112 >

Help